KFQD

Rutherford Co - Marchman Field Airport

Rutherfordton, North Carolina, USA
METAR KFQD 161220Z AUTO 00000KT 3SM BR SCT001 01/01 A2997 RMK AO2
Observed Flight Rules
Dec-16 @ 12:20 UTC (26 minutes ago) Marginal Visual Flight Rules
Visibility Clouds Conditions
3 miles
  • Scattered at 100' AGL
  • Mist
Temperatures Readings
Current 1°C / 34°F
Dewpoint 1°C / 34°F
Humidity 100%
Altimeter 29.97" Hg
Pressure 1015 hPa
Elevation 329
METAR KFQD 161220Z AUTO 00000KT 3SM BR SCT001 01/01 A2997 RMK AO2
Observed Flight Rules
Dec-16 @ 12:20 UTC
(26 minutes ago)
MVFR
Clouds
  • Scattered at 100' AGL
Conditions
  • Mist
Temperature Dewpoint
1°C / 34°F 1°C / 34°F
Humidity Altimeter Pressure
100% 29.97" Hg 1015 hPa